Janet — 9HSL8 — position and weather

sailwx.info

Track history (hours):
 
Tides and Currents Weather Stations Pressure Air Temp Water Temp Dewpoint Dewpoint Depression Visibility Wind Speed Wind Dir Waves Ship Positions

Janet

Last reported at 2015-Apr-19 02:33 UTC. Time now 2015-Apr-19 03:10 UTC.
Position N 38°41' W 009°50'.

Length 90 m; draft 3.4 m.

Type: Cargo ship. MMSI: 256371000.

Date/timePositionNaut miles runAvg speedWind from/ knotsBaromVisibWave heightAir tempDewpointWater temp
2015-Apr-19 02:33N 38°41' W 009°50'9 9.1
2015-Apr-19 01:33N 38°32' W 009°47'9 9.2
2015-Apr-19 00:33N 38°23' W 009°45'9 9.2
2015-Apr-18 23:33N 38°14' W 009°42'28 9.3
2015-Apr-18 20:32N 37°47' W 009°35'  
2015-Apr-14 03:32N 37°46' W 009°50'10 8.7
2015-Apr-14 02:26N 37°55' W 009°53'8 8.8
2015-Apr-14 01:33N 38°03' W 009°56'9 8.7
2015-Apr-14 00:33N 38°11' W 009°58'9 4.3
2015-Apr-13 22:33N 38°20' W 010°00'6 5.8
2015-Apr-13 21:33N 38°25' W 010°02'9 8.6
2015-Apr-13 20:33N 38°34' W 010°04'9 9.3
2015-Apr-13 19:33N 38°43' W 010°07'10 9.6
2015-Apr-13 18:33N 38°52' W 010°07'10 9.5
2015-Apr-13 17:33N 39°02' W 010°07'10 9.8
2015-Apr-13 16:33N 39°11' W 010°07'  
Track history (hours):
 
Tides and Currents Weather Stations Pressure Air Temp Water Temp Dewpoint Dewpoint Depression Visibility Wind Speed Wind Dir Waves Ship Positions

Janet

Last reported at 2015-Apr-19 02:33 UTC. Time now 2015-Apr-19 03:10 UTC.
Position N 38°41' W 009°50'.

Length 90 m; draft 3.4 m.

Type: Cargo ship. MMSI: 256371000.

Date/timePositionNaut miles runAvg speedWind from/ knotsBaromVisibWave heightAir tempDewpointWater temp
2015-Apr-19 02:33N 38°41' W 009°50'9 9.1
2015-Apr-19 01:33N 38°32' W 009°47'9 9.2
2015-Apr-19 00:33N 38°23' W 009°45'9 9.2
2015-Apr-18 23:33N 38°14' W 009°42'28 9.3
2015-Apr-18 20:32N 37°47' W 009°35'  
2015-Apr-14 03:32N 37°46' W 009°50'10 8.7
2015-Apr-14 02:26N 37°55' W 009°53'8 8.8
2015-Apr-14 01:33N 38°03' W 009°56'9 8.7
2015-Apr-14 00:33N 38°11' W 009°58'9 4.3
2015-Apr-13 22:33N 38°20' W 010°00'6 5.8
2015-Apr-13 21:33N 38°25' W 010°02'9 8.6
2015-Apr-13 20:33N 38°34' W 010°04'9 9.3
2015-Apr-13 19:33N 38°43' W 010°07'10 9.6
2015-Apr-13 18:33N 38°52' W 010°07'10 9.5
2015-Apr-13 17:33N 39°02' W 010°07'10 9.8
2015-Apr-13 16:33N 39°11' W 010°07'  

Dump ship's entire track history